createdAt,value
2022-08-20T00:00:50.217Z,33.21
2022-08-20T00:03:29.917Z,33.36
2022-08-20T00:06:24.141Z,33.03
2022-08-20T00:08:54.825Z,32.99
2022-08-20T00:11:29.417Z,33.05
2022-08-20T00:13:59.776Z,32.91
2022-08-20T00:16:29.773Z,33.26
2022-08-20T00:18:56.762Z,33.41
2022-08-20T00:21:25.707Z,33.43
2022-08-20T00:27:54.249Z,33.69
2022-08-20T00:33:56.316Z,33.90
2022-08-20T00:36:35.310Z,33.92
2022-08-20T00:39:55.719Z,34.06
2022-08-20T00:42:30.419Z,34.08
2022-08-20T00:48:54.682Z,34.62
2022-08-20T00:51:29.886Z,34.37
2022-08-20T00:54:07.164Z,34.46
2022-08-20T00:56:35.185Z,34.63
2022-08-20T00:59:03.352Z,34.69
2022-08-20T01:01:34.170Z,34.71
2022-08-20T01:04:34.992Z,34.72
2022-08-20T01:07:02.796Z,34.66
2022-08-20T01:09:49.721Z,34.76
2022-08-20T01:12:18.774Z,34.77
2022-08-20T01:14:47.677Z,34.70
2022-08-20T01:17:19.709Z,35.07
2022-08-20T01:19:55.649Z,35.20
2022-08-20T01:23:04.276Z,35.21
2022-08-20T01:26:03.772Z,35.12
2022-08-20T01:28:47.439Z,35.16
2022-08-20T01:31:23.548Z,35.09
2022-08-20T01:33:53.343Z,35.10
2022-08-20T01:36:46.451Z,34.98
2022-08-20T01:39:18.401Z,34.96
2022-08-20T01:42:03.403Z,35.14
2022-08-20T01:44:31.914Z,34.91
2022-08-20T01:47:09.770Z,35.06
2022-08-20T01:49:44.023Z,35.22
2022-08-20T01:52:20.024Z,35.21
2022-08-20T01:54:46.908Z,35.13
2022-08-20T01:57:17.130Z,35.23
2022-08-20T01:59:44.174Z,35.09
2022-08-20T02:02:12.733Z,34.93
2022-08-20T02:04:41.215Z,35.40
2022-08-20T02:07:12.412Z,35.15
2022-08-20T02:09:39.875Z,35.25
2022-08-20T02:12:09.805Z,35.34
2022-08-20T02:14:43.953Z,35.36
2022-08-20T02:17:12.827Z,34.96
2022-08-20T02:19:48.324Z,34.80
2022-08-20T02:22:34.453Z,35.01
2022-08-20T02:25:02.202Z,35.25
2022-08-20T02:27:29.315Z,35.33
2022-08-20T02:29:56.103Z,35.51
2022-08-20T02:32:32.563Z,35.47
2022-08-20T02:35:03.760Z,35.19
2022-08-20T02:37:31.525Z,35.53
2022-08-20T02:39:58.816Z,35.56
2022-08-20T02:42:26.524Z,35.56
2022-08-20T02:44:54.657Z,35.63
2022-08-20T02:47:21.698Z,36.08
2022-08-20T02:49:49.629Z,36.07
2022-08-20T02:52:25.696Z,36.46
2022-08-20T02:54:53.330Z,36.74
2022-08-20T02:57:20.794Z,37.39
2022-08-20T02:59:48.898Z,37.66
2022-08-20T03:02:15.922Z,38.89
2022-08-20T03:04:42.989Z,38.79
2022-08-20T03:07:11.878Z,39.97
2022-08-20T03:09:40.871Z,40.20
2022-08-20T03:12:08.833Z,40.70
2022-08-20T03:14:41.285Z,41.38
2022-08-20T03:17:08.535Z,41.09
2022-08-20T03:19:35.454Z,41.42
2022-08-20T03:22:02.323Z,41.78
2022-08-20T03:24:30.617Z,41.76
2022-08-20T03:26:57.741Z,41.59
2022-08-20T03:29:24.850Z,42.10
2022-08-20T03:31:51.846Z,42.17
2022-08-20T03:34:23.896Z,42.22
2022-08-20T03:37:05.746Z,42.08
2022-08-20T03:39:43.548Z,42.51
2022-08-20T03:42:10.549Z,42.45
2022-08-20T03:44:39.786Z,42.09
2022-08-20T03:47:09.750Z,41.96
2022-08-20T03:49:37.037Z,42.00
2022-08-20T03:52:09.806Z,42.33
2022-08-20T03:54:49.327Z,42.02
2022-08-20T03:57:16.605Z,42.18
2022-08-20T04:02:34.713Z,42.37
2022-08-20T04:05:01.676Z,42.89
2022-08-20T04:07:28.723Z,43.32
2022-08-20T04:09:56.895Z,43.05
2022-08-20T04:12:25.239Z,43.33
2022-08-20T04:14:54.497Z,43.35
2022-08-20T04:17:23.383Z,42.93
2022-08-20T04:19:50.225Z,42.75
2022-08-20T04:22:17.071Z,42.55
2022-08-20T04:24:44.583Z,42.36
2022-08-20T04:27:12.378Z,42.41
2022-08-20T04:29:43.220Z,42.46
2022-08-20T04:32:10.588Z,42.59
2022-08-20T04:37:31.439Z,42.21
2022-08-20T04:40:23.711Z,42.03
2022-08-20T04:43:05.247Z,41.62
2022-08-20T04:45:34.747Z,41.22
2022-08-20T04:48:15.500Z,40.98
2022-08-20T04:50:45.019Z,40.84
2022-08-20T04:53:14.458Z,41.09
2022-08-20T04:55:42.995Z,40.75
2022-08-20T04:58:19.835Z,40.73
2022-08-20T05:00:52.454Z,40.85
2022-08-20T05:03:20.144Z,40.51
2022-08-20T05:05:47.873Z,40.78
2022-08-20T05:08:19.632Z,39.88
2022-08-20T05:10:47.562Z,40.17
2022-08-20T05:13:14.321Z,40.01
2022-08-20T05:15:41.503Z,39.99
2022-08-20T05:18:09.453Z,39.93
2022-08-20T05:20:40.283Z,40.02
2022-08-20T05:23:14.057Z,39.43
2022-08-20T05:25:43.157Z,39.62
2022-08-20T05:28:13.333Z,39.38
2022-08-20T05:30:42.093Z,38.99
2022-08-20T05:33:14.081Z,38.79
2022-08-20T05:35:41.967Z,38.51
2022-08-20T05:38:12.082Z,38.46
2022-08-20T05:40:41.664Z,38.13
2022-08-20T05:43:09.402Z,38.03
2022-08-20T05:45:38.307Z,38.29
2022-08-20T05:48:12.874Z,37.66
2022-08-20T05:50:43.445Z,37.34
2022-08-20T05:53:10.582Z,37.67
2022-08-20T05:55:38.510Z,38.44
2022-08-20T05:58:25.208Z,39.02
2022-08-20T06:00:53.937Z,40.21
2022-08-20T06:03:42.290Z,40.10
2022-08-20T06:06:15.116Z,40.57
2022-08-20T06:09:00.215Z,40.20
2022-08-20T06:11:27.398Z,39.89
2022-08-20T06:13:54.279Z,40.29
2022-08-20T06:16:22.068Z,39.76
2022-08-20T06:18:58.236Z,40.47
2022-08-20T06:21:26.669Z,40.42
2022-08-20T06:24:01.497Z,40.59
2022-08-20T06:26:30.905Z,41.02
2022-08-20T06:29:04.773Z,40.34
2022-08-20T06:31:32.134Z,39.57
2022-08-20T06:34:04.885Z,39.01
2022-08-20T06:36:32.072Z,39.00
2022-08-20T06:38:59.521Z,38.40
2022-08-20T06:41:36.125Z,38.64
2022-08-20T06:44:14.869Z,38.04
2022-08-20T06:46:43.476Z,38.17
2022-08-20T06:49:10.833Z,37.82
2022-08-20T06:51:38.331Z,37.19
2022-08-20T06:54:36.462Z,37.56
2022-08-20T06:57:05.332Z,37.44
2022-08-20T06:59:32.787Z,37.14
2022-08-20T07:02:05.978Z,36.57
2022-08-20T07:04:59.733Z,36.46
2022-08-20T07:07:26.877Z,36.00
2022-08-20T07:10:12.392Z,35.77
2022-08-20T07:12:39.376Z,35.76
2022-08-20T07:15:10.216Z,35.46
2022-08-20T07:17:37.380Z,35.75
2022-08-20T07:20:11.638Z,35.72
2022-08-20T07:22:39.278Z,34.71
2022-08-20T07:25:08.684Z,34.34
2022-08-20T07:27:35.840Z,34.52
2022-08-20T07:30:24.929Z,33.67
2022-08-20T07:32:52.215Z,34.06
2022-08-20T07:35:20.611Z,33.74
2022-08-20T07:37:51.790Z,33.49
2022-08-20T07:40:27.955Z,33.02
2022-08-20T07:43:05.318Z,32.75
2022-08-20T07:45:32.250Z,32.56
2022-08-20T07:48:12.361Z,31.88
2022-08-20T07:51:01.030Z,31.69
2022-08-20T07:53:42.631Z,31.91
2022-08-20T07:56:12.251Z,32.28
2022-08-20T07:58:44.901Z,32.08
2022-08-20T08:01:11.935Z,31.83
2022-08-20T08:03:49.301Z,31.03
2022-08-20T08:06:29.149Z,31.24
2022-08-20T08:08:59.607Z,31.68
2022-08-20T08:11:26.641Z,31.04
2022-08-20T08:13:53.452Z,31.61
2022-08-20T08:16:21.277Z,31.09
2022-08-20T08:18:59.558Z,30.84
2022-08-20T08:21:26.618Z,31.34
2022-08-20T08:23:53.662Z,31.55
2022-08-20T08:26:21.857Z,31.82
2022-08-20T08:28:48.770Z,31.42
2022-08-20T08:31:16.047Z,32.93
2022-08-20T08:33:44.546Z,33.08
2022-08-20T08:36:14.555Z,33.10
2022-08-20T08:38:44.453Z,32.66
2022-08-20T08:41:19.830Z,33.72
2022-08-20T08:43:53.936Z,34.37
2022-08-20T08:46:25.629Z,35.14
2022-08-20T08:48:57.909Z,35.71
2022-08-20T08:51:32.984Z,35.42
2022-08-20T08:54:06.911Z,35.98
2022-08-20T08:56:35.077Z,36.57
2022-08-20T08:59:05.642Z,36.04
2022-08-20T09:01:54.720Z,36.86
2022-08-20T09:05:00.620Z,39.02
2022-08-20T09:07:31.424Z,39.99
2022-08-20T09:10:00.324Z,40.52
2022-08-20T09:12:28.050Z,41.21
2022-08-20T09:14:55.386Z,41.67
2022-08-20T09:17:28.429Z,43.27
2022-08-20T09:19:56.925Z,44.36
2022-08-20T09:26:29.294Z,45.73
2022-08-20T09:29:15.097Z,45.56
2022-08-20T09:31:42.505Z,45.25
2022-08-20T09:34:10.169Z,44.98
2022-08-20T09:36:36.940Z,45.14
2022-08-20T09:39:03.848Z,45.07
2022-08-20T09:41:33.581Z,45.21
2022-08-20T09:44:00.636Z,45.87
2022-08-20T09:46:27.730Z,45.72
2022-08-20T09:48:55.360Z,46.09
2022-08-20T09:51:23.005Z,46.64
2022-08-20T09:53:50.519Z,47.06
2022-08-20T09:56:18.156Z,47.11
2022-08-20T09:58:54.309Z,47.76
2022-08-20T10:01:22.844Z,49.28
2022-08-20T10:03:50.505Z,50.47
2022-08-20T10:06:19.854Z,52.01
2022-08-20T10:08:47.618Z,52.83
2022-08-20T10:11:14.739Z,53.55
2022-08-20T10:13:41.892Z,54.39
2022-08-20T10:16:08.970Z,54.87
2022-08-20T10:18:37.079Z,55.04
2022-08-20T10:21:10.761Z,55.12
2022-08-20T10:23:37.772Z,55.59
2022-08-20T10:26:04.593Z,55.66
2022-08-20T10:28:31.410Z,55.68
2022-08-20T10:30:58.397Z,55.91
2022-08-20T10:33:25.366Z,56.46
2022-08-20T10:35:55.681Z,56.23
2022-08-20T10:38:26.870Z,56.22
2022-08-20T10:40:53.853Z,56.79
2022-08-20T10:43:20.567Z,56.91
2022-08-20T10:45:47.442Z,56.86
2022-08-20T10:48:17.140Z,56.53
2022-08-20T10:50:46.412Z,57.10
2022-08-20T10:53:13.599Z,57.19
2022-08-20T10:55:40.392Z,58.07
2022-08-20T10:58:08.882Z,59.05
2022-08-20T11:00:39.383Z,58.84
2022-08-20T11:03:06.303Z,59.39
2022-08-20T11:05:34.121Z,60.81
2022-08-20T11:08:04.022Z,60.98
2022-08-20T11:10:34.056Z,62.82
2022-08-20T11:13:02.384Z,65.20
2022-08-20T11:15:29.343Z,66.38
2022-08-20T11:17:57.167Z,68.52
2022-08-20T11:20:26.239Z,68.96
2022-08-20T11:22:54.706Z,70.62
2022-08-20T11:25:21.556Z,70.50
2022-08-20T11:27:51.862Z,70.99
2022-08-20T11:30:26.060Z,71.50
2022-08-20T11:32:53.510Z,72.20
2022-08-20T11:35:43.397Z,72.40
2022-08-20T11:38:11.515Z,72.07
2022-08-20T11:40:38.821Z,71.53
2022-08-20T11:43:20.817Z,70.64
2022-08-20T11:45:56.068Z,69.28
2022-08-20T11:48:23.754Z,68.07
2022-08-20T11:50:52.039Z,68.06
2022-08-20T11:53:24.207Z,68.29
2022-08-20T11:55:52.529Z,68.07
2022-08-20T11:58:19.513Z,67.83
2022-08-20T12:00:46.363Z,67.62
2022-08-20T12:03:13.792Z,67.23
2022-08-20T12:05:43.121Z,66.61
2022-08-20T12:08:26.944Z,66.16
2022-08-20T12:10:56.534Z,66.39
2022-08-20T12:13:30.638Z,66.85
2022-08-20T12:16:12.925Z,66.83
2022-08-20T12:18:39.669Z,66.65
2022-08-20T12:21:08.478Z,66.30
2022-08-20T12:23:36.041Z,65.77
2022-08-20T12:26:03.598Z,65.37
2022-08-20T12:28:31.915Z,65.29
2022-08-20T12:30:59.396Z,65.37
2022-08-20T12:33:29.028Z,65.53
2022-08-20T12:38:44.743Z,65.55
2022-08-20T12:41:11.766Z,64.94
2022-08-20T12:47:34.016Z,63.76
2022-08-20T12:50:10.179Z,63.38
2022-08-20T12:52:37.880Z,62.92
2022-08-20T12:56:33.341Z,62.91
2022-08-20T12:59:03.700Z,61.31
2022-08-20T13:01:31.316Z,61.79
2022-08-20T13:03:58.800Z,61.68
2022-08-20T13:06:25.670Z,61.33
2022-08-20T13:08:52.848Z,61.57
2022-08-20T13:11:19.579Z,61.77
2022-08-20T13:13:47.716Z,60.92
2022-08-20T13:16:14.743Z,60.72
2022-08-20T13:18:41.651Z,60.37
2022-08-20T13:21:08.449Z,59.87
2022-08-20T13:23:35.595Z,60.36
2022-08-20T13:26:02.646Z,59.79
2022-08-20T13:28:29.449Z,59.48
2022-08-20T13:30:56.351Z,58.94
2022-08-20T13:33:23.168Z,59.50
2022-08-20T13:35:50.564Z,59.02
2022-08-20T13:38:17.920Z,59.09
2022-08-20T13:40:44.782Z,59.27
2022-08-20T13:43:16.233Z,59.34
2022-08-20T13:45:43.471Z,59.56
2022-08-20T13:48:14.697Z,59.98
2022-08-20T13:50:42.700Z,60.30
2022-08-20T13:53:10.222Z,61.20
2022-08-20T13:55:38.484Z,61.85
2022-08-20T13:58:07.766Z,61.39
2022-08-20T14:00:36.314Z,62.06
2022-08-20T14:03:05.109Z,61.83
2022-08-20T14:05:33.063Z,61.74
2022-08-20T14:08:30.876Z,61.89
2022-08-20T14:10:57.765Z,61.92
2022-08-20T14:13:26.078Z,62.13
2022-08-20T14:15:53.305Z,61.75
2022-08-20T14:18:20.677Z,61.52
2022-08-20T14:20:48.109Z,61.87
2022-08-20T14:23:15.493Z,61.40
2022-08-20T14:25:46.210Z,61.15
2022-08-20T14:28:19.898Z,61.52
2022-08-20T14:30:53.225Z,60.73
2022-08-20T14:33:22.797Z,60.90
2022-08-20T14:35:49.841Z,61.26
2022-08-20T14:38:17.792Z,61.53
2022-08-20T14:40:45.026Z,60.79
2022-08-20T14:43:12.016Z,60.90
2022-08-20T14:45:38.874Z,60.68
2022-08-20T14:48:09.338Z,60.45
2022-08-20T14:50:36.920Z,60.22
2022-08-20T14:53:04.852Z,59.99
2022-08-20T14:55:35.891Z,59.95
2022-08-20T14:58:07.708Z,60.60
2022-08-20T15:00:34.950Z,60.96
2022-08-20T15:03:02.023Z,60.45
2022-08-20T15:05:29.895Z,60.70
2022-08-20T15:07:57.797Z,60.43
2022-08-20T15:10:29.838Z,61.05
2022-08-20T15:12:58.142Z,60.69
2022-08-20T15:15:25.781Z,60.68
2022-08-20T15:17:56.198Z,60.60
2022-08-20T15:20:26.327Z,60.62
2022-08-20T15:22:57.152Z,60.28
2022-08-20T15:25:26.624Z,60.52
2022-08-20T15:28:17.291Z,60.58
2022-08-20T15:30:57.297Z,60.47
2022-08-20T15:33:24.244Z,60.47
2022-08-20T15:36:04.655Z,60.39
2022-08-20T15:38:33.061Z,60.36
2022-08-20T15:41:03.168Z,60.27
2022-08-20T15:43:32.591Z,60.62
2022-08-20T15:46:00.962Z,60.81
2022-08-20T15:48:32.189Z,60.56
2022-08-20T15:51:11.907Z,60.25
2022-08-20T15:54:02.387Z,60.46
2022-08-20T15:56:50.883Z,60.82
2022-08-20T15:59:39.240Z,60.97
2022-08-20T16:02:20.598Z,60.83
2022-08-20T16:05:09.828Z,61.51
2022-08-20T16:08:04.637Z,61.87
2022-08-20T16:10:42.449Z,61.93
2022-08-20T16:13:41.605Z,62.53
2022-08-20T16:16:16.424Z,62.52
2022-08-20T16:18:48.189Z,62.19
2022-08-20T16:21:19.006Z,62.39
2022-08-20T16:23:47.334Z,62.59
2022-08-20T16:26:23.228Z,62.63
2022-08-20T16:28:56.286Z,62.78
2022-08-20T16:31:28.120Z,62.48
2022-08-20T16:34:33.226Z,62.69
2022-08-20T16:37:16.347Z,63.07
2022-08-20T16:39:58.572Z,63.00
2022-08-20T16:42:32.937Z,62.64
2022-08-20T16:45:01.987Z,62.55
2022-08-20T16:47:34.463Z,62.43
2022-08-20T16:50:01.542Z,61.88
2022-08-20T16:52:28.874Z,61.58
2022-08-20T16:54:59.659Z,61.55
2022-08-20T16:57:28.869Z,61.30
2022-08-20T17:00:24.881Z,61.29
2022-08-20T17:03:00.813Z,61.39
2022-08-20T17:05:49.778Z,61.32
2022-08-20T17:08:28.526Z,61.29
2022-08-20T17:11:11.396Z,61.11
2022-08-20T17:13:41.610Z,61.20
2022-08-20T17:16:21.024Z,61.44
2022-08-20T17:18:51.382Z,61.76
2022-08-20T17:21:38.393Z,61.93
2022-08-20T17:24:16.638Z,62.30
2022-08-20T17:26:56.192Z,62.08
2022-08-20T17:29:28.117Z,62.40
2022-08-20T17:31:58.397Z,62.09
2022-08-20T17:35:01.157Z,62.24
2022-08-20T17:37:33.744Z,62.15
2022-08-20T17:40:11.819Z,62.48
2022-08-20T17:42:58.516Z,62.27
2022-08-20T17:48:35.859Z,63.14
2022-08-20T17:51:21.886Z,62.87
2022-08-20T17:54:15.333Z,62.76
2022-08-20T17:56:48.250Z,63.16
2022-08-20T17:59:59.538Z,63.22
2022-08-20T18:02:10.646Z,63.45
2022-08-20T18:04:53.954Z,63.73
2022-08-20T18:07:41.870Z,63.10
2022-08-20T18:10:21.099Z,63.29
2022-08-20T18:12:54.153Z,63.41
2022-08-20T18:15:31.984Z,63.90
2022-08-20T18:18:11.731Z,63.89
2022-08-20T18:25:15.389Z,64.11
2022-08-20T18:27:50.923Z,63.96
2022-08-20T18:30:21.167Z,63.87
2022-08-20T18:33:08.013Z,64.33
2022-08-20T18:35:45.636Z,64.28
2022-08-20T18:38:29.528Z,64.08
2022-08-20T18:41:29.706Z,64.00
2022-08-20T18:44:40.797Z,64.28
2022-08-20T18:47:35.624Z,64.14
2022-08-20T18:50:16.028Z,64.10
2022-08-20T18:56:51.836Z,63.97
2022-08-20T18:59:47.282Z,63.77
2022-08-20T19:02:29.493Z,64.16
2022-08-20T19:05:02.791Z,64.10
2022-08-20T19:07:43.100Z,63.88
2022-08-20T19:10:30.753Z,63.96
2022-08-20T19:13:18.216Z,64.12
2022-08-20T19:16:20.953Z,64.37
2022-08-20T19:19:14.824Z,63.99
2022-08-20T19:21:54.836Z,63.93
2022-08-20T19:24:34.383Z,64.51
2022-08-20T19:27:07.728Z,64.35
2022-08-20T19:29:47.917Z,64.72
2022-08-20T19:32:34.658Z,64.83
2022-08-20T19:35:12.048Z,64.68
2022-08-20T19:37:52.169Z,64.19
2022-08-20T19:40:28.615Z,64.01
2022-08-20T19:43:13.338Z,63.78
2022-08-20T19:45:53.529Z,64.08
2022-08-20T19:48:51.685Z,64.19
2022-08-20T19:51:35.101Z,64.24
2022-08-20T19:55:04.018Z,64.90
2022-08-20T19:57:31.594Z,64.72
2022-08-20T20:00:14.736Z,65.32
2022-08-20T20:02:41.738Z,66.03
2022-08-20T20:05:10.343Z,66.16
2022-08-20T20:07:46.894Z,67.13
2022-08-20T20:10:32.161Z,67.33
2022-08-20T20:13:13.646Z,67.88
2022-08-20T20:15:42.650Z,68.02
2022-08-20T20:18:10.396Z,68.66
2022-08-20T20:20:57.038Z,69.00
2022-08-20T20:23:38.499Z,69.81
2022-08-20T20:26:20.417Z,69.88
2022-08-20T20:35:47.142Z,70.29
2022-08-20T20:38:46.155Z,69.77
2022-08-20T20:41:29.776Z,69.40
2022-08-20T20:44:03.648Z,69.03
2022-08-20T20:46:33.726Z,68.86
2022-08-20T20:49:08.194Z,68.82
2022-08-20T20:51:40.400Z,68.71
2022-08-20T20:54:24.153Z,68.34
2022-08-20T20:57:06.585Z,68.36
2022-08-20T20:59:35.419Z,68.86
2022-08-20T21:02:03.166Z,68.61
2022-08-20T21:04:30.753Z,68.18
2022-08-20T21:10:10.302Z,67.55
2022-08-20T21:12:39.255Z,67.29
2022-08-20T21:15:06.722Z,67.44
2022-08-20T21:17:33.620Z,67.57
2022-08-20T21:20:01.951Z,67.55
2022-08-20T21:22:33.988Z,67.68
2022-08-20T21:25:01.436Z,67.72
2022-08-20T21:27:29.936Z,67.89
2022-08-20T21:29:57.216Z,67.76
2022-08-20T21:32:24.557Z,68.40
2022-08-20T21:34:53.448Z,68.62
2022-08-20T21:37:20.298Z,68.88
2022-08-20T21:39:47.574Z,68.99
2022-08-20T21:42:28.568Z,69.03
2022-08-20T21:45:00.063Z,69.73
2022-08-20T21:47:28.452Z,69.85
2022-08-20T21:49:55.431Z,69.70
2022-08-20T21:52:23.490Z,70.02
2022-08-20T21:54:50.413Z,70.36
2022-08-20T21:57:28.875Z,70.33
2022-08-20T21:59:57.281Z,70.65
2022-08-20T22:02:25.246Z,70.66
2022-08-20T22:04:54.015Z,70.67
2022-08-20T22:07:21.716Z,71.45
2022-08-20T22:09:48.450Z,71.75
2022-08-20T22:12:23.272Z,71.99
2022-08-20T22:14:50.743Z,72.35
2022-08-20T22:17:17.986Z,72.76
2022-08-20T22:19:45.005Z,72.91
2022-08-20T22:22:13.457Z,72.85
2022-08-20T22:24:40.308Z,72.53
2022-08-20T22:27:07.808Z,72.88
2022-08-20T22:29:34.856Z,72.68
2022-08-20T22:32:02.379Z,72.71
2022-08-20T22:34:35.929Z,72.65
2022-08-20T22:37:04.180Z,72.52
2022-08-20T22:39:31.034Z,72.00
2022-08-20T22:41:58.157Z,72.25
2022-08-20T22:44:25.232Z,72.54
2022-08-20T22:46:55.896Z,72.42
2022-08-20T22:49:27.168Z,72.22
2022-08-20T22:51:54.224Z,72.29
2022-08-20T22:54:25.043Z,72.02
2022-08-20T22:56:54.130Z,72.40
2022-08-20T22:59:22.227Z,72.53
2022-08-20T23:01:50.503Z,72.26
2022-08-20T23:04:26.463Z,72.67
2022-08-20T23:06:54.966Z,72.34
2022-08-20T23:09:22.325Z,72.47
2022-08-20T23:11:49.819Z,72.80
2022-08-20T23:14:17.122Z,72.71
2022-08-20T23:17:01.903Z,72.67
2022-08-20T23:19:29.497Z,72.33
2022-08-20T23:21:56.567Z,72.49
2022-08-20T23:24:36.712Z,72.00
2022-08-20T23:27:06.590Z,72.15
2022-08-20T23:29:33.939Z,72.33
2022-08-20T23:32:00.885Z,72.05
2022-08-20T23:34:28.412Z,72.51
2022-08-20T23:36:56.988Z,72.69
2022-08-20T23:39:25.632Z,72.58
2022-08-20T23:41:52.946Z,72.46
2022-08-20T23:44:25.805Z,72.50
2022-08-20T23:47:00.306Z,72.18
2022-08-20T23:49:28.219Z,72.09
2022-08-20T23:51:55.848Z,71.80
2022-08-20T23:54:22.727Z,71.66
2022-08-20T23:56:49.716Z,71.89
2022-08-20T23:59:16.993Z,71.88
